sensor_id;sensor_type;location;lat;lon;timestamp;P1;durP1;ratioP1;P2;durP2;ratioP2
6031;SDS011;3044;43.232;27.972;2023-09-07T00:01:36;12.67;;;4.97;;
6031;SDS011;3044;43.232;27.972;2023-09-07T00:04:03;5.40;;;4.70;;
6031;SDS011;3044;43.232;27.972;2023-09-07T00:06:31;7.60;;;5.20;;
6031;SDS011;3044;43.232;27.972;2023-09-07T00:09:01;13.47;;;4.63;;
6031;SDS011;3044;43.232;27.972;2023-09-07T00:11:29;8.97;;;5.00;;
6031;SDS011;3044;43.232;27.972;2023-09-07T00:13:56;8.50;;;4.77;;
6031;SDS011;3044;43.232;27.972;2023-09-07T00:16:24;7.10;;;4.83;;
6031;SDS011;3044;43.232;27.972;2023-09-07T00:18:51;9.53;;;5.10;;
6031;SDS011;3044;43.232;27.972;2023-09-07T00:21:18;7.27;;;5.10;;
6031;SDS011;3044;43.232;27.972;2023-09-07T00:23:45;5.90;;;5.40;;
6031;SDS011;3044;43.232;27.972;2023-09-07T00:26:14;6.17;;;4.97;;
6031;SDS011;3044;43.232;27.972;2023-09-07T00:28:41;10.30;;;4.73;;
6031;SDS011;3044;43.232;27.972;2023-09-07T00:31:08;6.87;;;4.43;;
6031;SDS011;3044;43.232;27.972;2023-09-07T00:33:35;6.60;;;4.47;;
6031;SDS011;3044;43.232;27.972;2023-09-07T00:36:02;8.23;;;5.50;;
6031;SDS011;3044;43.232;27.972;2023-09-07T00:38:30;7.30;;;4.80;;
6031;SDS011;3044;43.232;27.972;2023-09-07T00:40:57;5.60;;;5.10;;
6031;SDS011;3044;43.232;27.972;2023-09-07T00:43:26;10.03;;;5.53;;
6031;SDS011;3044;43.232;27.972;2023-09-07T00:45:53;8.30;;;4.63;;
6031;SDS011;3044;43.232;27.972;2023-09-07T00:48:20;14.70;;;5.33;;
6031;SDS011;3044;43.232;27.972;2023-09-07T00:50:49;5.03;;;4.63;;
6031;SDS011;3044;43.232;27.972;2023-09-07T00:53:16;5.00;;;4.60;;
6031;SDS011;3044;43.232;27.972;2023-09-07T00:55:44;5.57;;;4.63;;
6031;SDS011;3044;43.232;27.972;2023-09-07T00:58:12;8.27;;;5.40;;
6031;SDS011;3044;43.232;27.972;2023-09-07T01:00:40;5.20;;;4.70;;
6031;SDS011;3044;43.232;27.972;2023-09-07T01:03:08;5.10;;;4.60;;
6031;SDS011;3044;43.232;27.972;2023-09-07T01:05:39;5.23;;;4.70;;
6031;SDS011;3044;43.232;27.972;2023-09-07T01:08:10;7.37;;;5.00;;
6031;SDS011;3044;43.232;27.972;2023-09-07T01:10:42;5.30;;;4.63;;
6031;SDS011;3044;43.232;27.972;2023-09-07T01:13:09;6.33;;;4.80;;
6031;SDS011;3044;43.232;27.972;2023-09-07T01:15:36;6.23;;;4.50;;
6031;SDS011;3044;43.232;27.972;2023-09-07T01:18:05;5.47;;;4.47;;
6031;SDS011;3044;43.232;27.972;2023-09-07T01:20:34;9.83;;;4.33;;
6031;SDS011;3044;43.232;27.972;2023-09-07T01:23:04;5.07;;;4.10;;
6031;SDS011;3044;43.232;27.972;2023-09-07T01:25:32;7.20;;;4.27;;
6031;SDS011;3044;43.232;27.972;2023-09-07T01:28:00;14.80;;;5.07;;
6031;SDS011;3044;43.232;27.972;2023-09-07T01:30:27;11.17;;;4.57;;
6031;SDS011;3044;43.232;27.972;2023-09-07T01:32:54;15.97;;;4.80;;
6031;SDS011;3044;43.232;27.972;2023-09-07T01:35:21;9.90;;;4.93;;
6031;SDS011;3044;43.232;27.972;2023-09-07T01:37:50;5.53;;;4.90;;
6031;SDS011;3044;43.232;27.972;2023-09-07T01:40:18;12.07;;;4.33;;
6031;SDS011;3044;43.232;27.972;2023-09-07T01:42:45;12.73;;;5.30;;
6031;SDS011;3044;43.232;27.972;2023-09-07T01:45:13;4.87;;;4.47;;
6031;SDS011;3044;43.232;27.972;2023-09-07T01:47:39;8.93;;;4.70;;
6031;SDS011;3044;43.232;27.972;2023-09-07T01:50:06;5.77;;;5.10;;
6031;SDS011;3044;43.232;27.972;2023-09-07T01:52:34;6.90;;;5.30;;
6031;SDS011;3044;43.232;27.972;2023-09-07T01:55:01;11.90;;;5.10;;
6031;SDS011;3044;43.232;27.972;2023-09-07T01:57:29;5.63;;;4.97;;
6031;SDS011;3044;43.232;27.972;2023-09-07T01:59:58;6.00;;;5.33;;
6031;SDS011;3044;43.232;27.972;2023-09-07T02:02:25;8.13;;;6.07;;
6031;SDS011;3044;43.232;27.972;2023-09-07T02:04:52;8.07;;;5.80;;
6031;SDS011;3044;43.232;27.972;2023-09-07T02:07:19;11.57;;;6.43;;
6031;SDS011;3044;43.232;27.972;2023-09-07T02:09:46;10.13;;;6.67;;
6031;SDS011;3044;43.232;27.972;2023-09-07T02:12:13;7.27;;;6.20;;
6031;SDS011;3044;43.232;27.972;2023-09-07T02:14:42;7.77;;;6.97;;
6031;SDS011;3044;43.232;27.972;2023-09-07T02:17:09;9.90;;;7.40;;
6031;SDS011;3044;43.232;27.972;2023-09-07T02:19:39;10.03;;;7.87;;
6031;SDS011;3044;43.232;27.972;2023-09-07T02:22:06;8.37;;;7.40;;
6031;SDS011;3044;43.232;27.972;2023-09-07T02:24:33;12.43;;;7.73;;
6031;SDS011;3044;43.232;27.972;2023-09-07T02:27:00;11.63;;;8.20;;
6031;SDS011;3044;43.232;27.972;2023-09-07T02:29:28;14.67;;;8.50;;
6031;SDS011;3044;43.232;27.972;2023-09-07T02:31:56;10.23;;;8.17;;
6031;SDS011;3044;43.232;27.972;2023-09-07T02:34:23;10.77;;;8.17;;
6031;SDS011;3044;43.232;27.972;2023-09-07T02:36:50;9.67;;;7.87;;
6031;SDS011;3044;43.232;27.972;2023-09-07T02:39:17;10.33;;;7.77;;
6031;SDS011;3044;43.232;27.972;2023-09-07T02:41:45;13.30;;;8.03;;
6031;SDS011;3044;43.232;27.972;2023-09-07T02:44:12;11.03;;;9.20;;
6031;SDS011;3044;43.232;27.972;2023-09-07T02:46:39;13.17;;;9.00;;
6031;SDS011;3044;43.232;27.972;2023-09-07T02:49:07;10.47;;;7.53;;
6031;SDS011;3044;43.232;27.972;2023-09-07T02:51:35;12.20;;;9.60;;
6031;SDS011;3044;43.232;27.972;2023-09-07T02:54:02;16.63;;;8.30;;
6031;SDS011;3044;43.232;27.972;2023-09-07T02:56:31;10.60;;;8.73;;
6031;SDS011;3044;43.232;27.972;2023-09-07T02:58:58;12.50;;;7.37;;
6031;SDS011;3044;43.232;27.972;2023-09-07T03:01:25;12.00;;;7.90;;
6031;SDS011;3044;43.232;27.972;2023-09-07T03:03:52;12.73;;;8.77;;
6031;SDS011;3044;43.232;27.972;2023-09-07T03:06:20;12.57;;;8.17;;
6031;SDS011;3044;43.232;27.972;2023-09-07T03:08:48;9.23;;;7.90;;
6031;SDS011;3044;43.232;27.972;2023-09-07T03:11:15;11.87;;;8.77;;
6031;SDS011;3044;43.232;27.972;2023-09-07T03:13:43;11.10;;;7.97;;
6031;SDS011;3044;43.232;27.972;2023-09-07T03:16:10;11.73;;;7.97;;
6031;SDS011;3044;43.232;27.972;2023-09-07T03:18:37;23.20;;;7.80;;
6031;SDS011;3044;43.232;27.972;2023-09-07T03:21:04;9.00;;;7.20;;
6031;SDS011;3044;43.232;27.972;2023-09-07T03:23:33;12.17;;;7.67;;
6031;SDS011;3044;43.232;27.972;2023-09-07T03:26:00;17.63;;;7.80;;
6031;SDS011;3044;43.232;27.972;2023-09-07T03:28:27;13.07;;;6.70;;
6031;SDS011;3044;43.232;27.972;2023-09-07T03:30:54;8.30;;;6.67;;
6031;SDS011;3044;43.232;27.972;2023-09-07T03:33:22;17.33;;;7.67;;
6031;SDS011;3044;43.232;27.972;2023-09-07T03:35:49;12.83;;;7.23;;
6031;SDS011;3044;43.232;27.972;2023-09-07T03:38:17;10.87;;;7.40;;
6031;SDS011;3044;43.232;27.972;2023-09-07T03:40:45;12.23;;;8.00;;
6031;SDS011;3044;43.232;27.972;2023-09-07T03:43:12;12.20;;;7.50;;
6031;SDS011;3044;43.232;27.972;2023-09-07T03:45:40;13.60;;;7.53;;
6031;SDS011;3044;43.232;27.972;2023-09-07T03:48:07;13.07;;;6.43;;
6031;SDS011;3044;43.232;27.972;2023-09-07T03:50:34;18.53;;;7.50;;
6031;SDS011;3044;43.232;27.972;2023-09-07T03:53:02;12.10;;;6.73;;
6031;SDS011;3044;43.232;27.972;2023-09-07T03:55:29;8.40;;;6.50;;
6031;SDS011;3044;43.232;27.972;2023-09-07T03:57:58;9.00;;;6.63;;
6031;SDS011;3044;43.232;27.972;2023-09-07T04:00:25;9.77;;;6.43;;
6031;SDS011;3044;43.232;27.972;2023-09-07T04:02:52;18.23;;;7.60;;
6031;SDS011;3044;43.232;27.972;2023-09-07T04:05:21;11.80;;;7.10;;
6031;SDS011;3044;43.232;27.972;2023-09-07T04:07:50;10.17;;;6.90;;
6031;SDS011;3044;43.232;27.972;2023-09-07T04:10:17;15.10;;;6.50;;
6031;SDS011;3044;43.232;27.972;2023-09-07T04:12:45;7.40;;;6.60;;
6031;SDS011;3044;43.232;27.972;2023-09-07T04:15:13;9.10;;;6.67;;
6031;SDS011;3044;43.232;27.972;2023-09-07T04:17:40;16.73;;;6.90;;
6031;SDS011;3044;43.232;27.972;2023-09-07T04:20:08;12.00;;;7.07;;
6031;SDS011;3044;43.232;27.972;2023-09-07T04:22:37;11.67;;;6.30;;
6031;SDS011;3044;43.232;27.972;2023-09-07T04:25:05;11.30;;;6.53;;
6031;SDS011;3044;43.232;27.972;2023-09-07T04:27:32;20.23;;;7.40;;
6031;SDS011;3044;43.232;27.972;2023-09-07T04:30:00;12.63;;;6.87;;
6031;SDS011;3044;43.232;27.972;2023-09-07T04:32:28;10.20;;;7.10;;
6031;SDS011;3044;43.232;27.972;2023-09-07T04:34:55;13.57;;;6.10;;
6031;SDS011;3044;43.232;27.972;2023-09-07T04:37:24;12.30;;;6.63;;
6031;SDS011;3044;43.232;27.972;2023-09-07T04:39:52;7.63;;;6.17;;
6031;SDS011;3044;43.232;27.972;2023-09-07T04:42:19;16.00;;;6.23;;
6031;SDS011;3044;43.232;27.972;2023-09-07T04:44:47;11.03;;;6.30;;
6031;SDS011;3044;43.232;27.972;2023-09-07T04:47:14;7.20;;;5.70;;
6031;SDS011;3044;43.232;27.972;2023-09-07T04:49:47;11.30;;;6.30;;
6031;SDS011;3044;43.232;27.972;2023-09-07T04:52:16;7.90;;;6.07;;
6031;SDS011;3044;43.232;27.972;2023-09-07T04:54:43;9.20;;;6.40;;
6031;SDS011;3044;43.232;27.972;2023-09-07T04:57:10;13.50;;;6.40;;
6031;SDS011;3044;43.232;27.972;2023-09-07T04:59:37;8.97;;;6.17;;
6031;SDS011;3044;43.232;27.972;2023-09-07T05:02:04;8.47;;;5.87;;
6031;SDS011;3044;43.232;27.972;2023-09-07T05:04:32;13.93;;;6.83;;
6031;SDS011;3044;43.232;27.972;2023-09-07T05:07:00;8.57;;;5.30;;
6031;SDS011;3044;43.232;27.972;2023-09-07T05:09:27;10.40;;;5.17;;
6031;SDS011;3044;43.232;27.972;2023-09-07T05:11:55;8.10;;;5.50;;
6031;SDS011;3044;43.232;27.972;2023-09-07T05:14:23;8.60;;;5.83;;
6031;SDS011;3044;43.232;27.972;2023-09-07T05:16:50;6.80;;;5.23;;
6031;SDS011;3044;43.232;27.972;2023-09-07T05:19:18;7.40;;;5.67;;
6031;SDS011;3044;43.232;27.972;2023-09-07T05:21:45;10.23;;;5.70;;
6031;SDS011;3044;43.232;27.972;2023-09-07T05:24:14;13.90;;;5.37;;
6031;SDS011;3044;43.232;27.972;2023-09-07T05:26:41;16.93;;;5.30;;
6031;SDS011;3044;43.232;27.972;2023-09-07T05:29:09;14.10;;;5.10;;
6031;SDS011;3044;43.232;27.972;2023-09-07T05:31:36;11.40;;;5.17;;
6031;SDS011;3044;43.232;27.972;2023-09-07T05:34:03;5.60;;;4.60;;
6031;SDS011;3044;43.232;27.972;2023-09-07T05:36:30;12.70;;;5.90;;
6031;SDS011;3044;43.232;27.972;2023-09-07T05:38:57;12.93;;;4.97;;
6031;SDS011;3044;43.232;27.972;2023-09-07T05:41:28;14.47;;;5.50;;
6031;SDS011;3044;43.232;27.972;2023-09-07T05:43:55;12.40;;;5.70;;
6031;SDS011;3044;43.232;27.972;2023-09-07T05:46:22;6.97;;;5.47;;
6031;SDS011;3044;43.232;27.972;2023-09-07T05:48:50;9.83;;;5.17;;
6031;SDS011;3044;43.232;27.972;2023-09-07T05:51:17;8.63;;;4.93;;
6031;SDS011;3044;43.232;27.972;2023-09-07T05:53:44;6.37;;;4.67;;
6031;SDS011;3044;43.232;27.972;2023-09-07T05:56:11;6.90;;;4.30;;
6031;SDS011;3044;43.232;27.972;2023-09-07T05:58:40;12.57;;;6.13;;
6031;SDS011;3044;43.232;27.972;2023-09-07T06:01:07;10.03;;;5.23;;
6031;SDS011;3044;43.232;27.972;2023-09-07T06:03:34;12.10;;;5.53;;
6031;SDS011;3044;43.232;27.972;2023-09-07T06:06:01;15.30;;;4.80;;
6031;SDS011;3044;43.232;27.972;2023-09-07T06:08:29;11.30;;;5.27;;
6031;SDS011;3044;43.232;27.972;2023-09-07T06:10:56;12.43;;;5.27;;
6031;SDS011;3044;43.232;27.972;2023-09-07T06:13:23;11.30;;;5.10;;
6031;SDS011;3044;43.232;27.972;2023-09-07T06:15:51;12.80;;;4.53;;
6031;SDS011;3044;43.232;27.972;2023-09-07T06:18:19;8.00;;;4.57;;
6031;SDS011;3044;43.232;27.972;2023-09-07T06:20:46;7.10;;;5.40;;
6031;SDS011;3044;43.232;27.972;2023-09-07T06:23:13;7.27;;;4.70;;
6031;SDS011;3044;43.232;27.972;2023-09-07T06:25:40;8.87;;;4.50;;
6031;SDS011;3044;43.232;27.972;2023-09-07T06:28:07;14.20;;;4.70;;
6031;SDS011;3044;43.232;27.972;2023-09-07T06:30:34;8.33;;;4.50;;
6031;SDS011;3044;43.232;27.972;2023-09-07T06:33:03;7.83;;;5.17;;
6031;SDS011;3044;43.232;27.972;2023-09-07T06:35:30;9.53;;;5.20;;
6031;SDS011;3044;43.232;27.972;2023-09-07T06:37:58;14.43;;;5.20;;
6031;SDS011;3044;43.232;27.972;2023-09-07T06:40:25;13.70;;;4.37;;
6031;SDS011;3044;43.232;27.972;2023-09-07T06:42:52;10.47;;;5.00;;
6031;SDS011;3044;43.232;27.972;2023-09-07T06:45:21;6.17;;;4.40;;
6031;SDS011;3044;43.232;27.972;2023-09-07T06:47:49;9.30;;;4.40;;
6031;SDS011;3044;43.232;27.972;2023-09-07T06:50:18;15.40;;;4.40;;
6031;SDS011;3044;43.232;27.972;2023-09-07T06:52:46;20.63;;;4.60;;
6031;SDS011;3044;43.232;27.972;2023-09-07T06:55:13;10.80;;;4.40;;
6031;SDS011;3044;43.232;27.972;2023-09-07T06:57:40;9.20;;;4.70;;
6031;SDS011;3044;43.232;27.972;2023-09-07T07:00:08;5.00;;;4.40;;
6031;SDS011;3044;43.232;27.972;2023-09-07T07:02:37;9.30;;;4.37;;
6031;SDS011;3044;43.232;27.972;2023-09-07T07:05:05;12.63;;;4.30;;
6031;SDS011;3044;43.232;27.972;2023-09-07T07:07:35;7.23;;;4.37;;
6031;SDS011;3044;43.232;27.972;2023-09-07T07:10:02;13.17;;;4.43;;
6031;SDS011;3044;43.232;27.972;2023-09-07T07:12:30;6.73;;;4.67;;
6031;SDS011;3044;43.232;27.972;2023-09-07T07:14:59;7.00;;;4.03;;
6031;SDS011;3044;43.232;27.972;2023-09-07T07:17:27;8.07;;;4.00;;
6031;SDS011;3044;43.232;27.972;2023-09-07T07:19:54;15.80;;;4.70;;
6031;SDS011;3044;43.232;27.972;2023-09-07T07:22:21;9.50;;;3.87;;
6031;SDS011;3044;43.232;27.972;2023-09-07T07:24:49;6.90;;;4.00;;
6031;SDS011;3044;43.232;27.972;2023-09-07T07:27:16;12.83;;;4.70;;
6031;SDS011;3044;43.232;27.972;2023-09-07T07:29:44;14.17;;;4.37;;
6031;SDS011;3044;43.232;27.972;2023-09-07T07:32:11;9.00;;;3.93;;
6031;SDS011;3044;43.232;27.972;2023-09-07T07:34:38;6.60;;;4.17;;
6031;SDS011;3044;43.232;27.972;2023-09-07T07:37:05;11.97;;;4.57;;
6031;SDS011;3044;43.232;27.972;2023-09-07T07:39:32;4.73;;;3.50;;
6031;SDS011;3044;43.232;27.972;2023-09-07T07:42:01;9.17;;;4.00;;
6031;SDS011;3044;43.232;27.972;2023-09-07T07:44:31;8.80;;;4.40;;
6031;SDS011;3044;43.232;27.972;2023-09-07T07:46:58;11.50;;;4.20;;
6031;SDS011;3044;43.232;27.972;2023-09-07T07:49:25;8.80;;;4.20;;
6031;SDS011;3044;43.232;27.972;2023-09-07T07:51:53;7.90;;;3.73;;
6031;SDS011;3044;43.232;27.972;2023-09-07T07:54:21;11.97;;;4.47;;
6031;SDS011;3044;43.232;27.972;2023-09-07T07:56:50;11.07;;;4.00;;
6031;SDS011;3044;43.232;27.972;2023-09-07T07:59:18;9.60;;;4.83;;
6031;SDS011;3044;43.232;27.972;2023-09-07T08:01:45;9.00;;;4.10;;
6031;SDS011;3044;43.232;27.972;2023-09-07T08:04:13;5.60;;;4.43;;
6031;SDS011;3044;43.232;27.972;2023-09-07T08:06:41;6.10;;;4.13;;
6031;SDS011;3044;43.232;27.972;2023-09-07T08:09:08;5.53;;;4.60;;
6031;SDS011;3044;43.232;27.972;2023-09-07T08:11:35;6.87;;;4.97;;
6031;SDS011;3044;43.232;27.972;2023-09-07T08:14:03;7.80;;;5.20;;
6031;SDS011;3044;43.232;27.972;2023-09-07T08:16:32;7.93;;;5.30;;
6031;SDS011;3044;43.232;27.972;2023-09-07T08:18:59;8.63;;;4.73;;
6031;SDS011;3044;43.232;27.972;2023-09-07T08:21:27;6.30;;;4.50;;
6031;SDS011;3044;43.232;27.972;2023-09-07T08:23:54;14.33;;;4.10;;
6031;SDS011;3044;43.232;27.972;2023-09-07T08:26:21;6.13;;;4.40;;
6031;SDS011;3044;43.232;27.972;2023-09-07T08:28:48;16.90;;;4.77;;
6031;SDS011;3044;43.232;27.972;2023-09-07T08:31:16;6.27;;;4.50;;
6031;SDS011;3044;43.232;27.972;2023-09-07T08:33:48;6.57;;;3.93;;
6031;SDS011;3044;43.232;27.972;2023-09-07T08:36:17;6.40;;;4.97;;
6031;SDS011;3044;43.232;27.972;2023-09-07T08:38:47;8.33;;;4.37;;
6031;SDS011;3044;43.232;27.972;2023-09-07T08:41:14;26.03;;;5.43;;
6031;SDS011;3044;43.232;27.972;2023-09-07T08:43:44;8.10;;;4.03;;
6031;SDS011;3044;43.232;27.972;2023-09-07T08:46:13;7.93;;;4.03;;
6031;SDS011;3044;43.232;27.972;2023-09-07T08:48:42;11.70;;;3.97;;
6031;SDS011;3044;43.232;27.972;2023-09-07T08:51:11;7.30;;;4.00;;
6031;SDS011;3044;43.232;27.972;2023-09-07T08:53:39;18.17;;;4.10;;
6031;SDS011;3044;43.232;27.972;2023-09-07T08:56:11;12.90;;;4.50;;
6031;SDS011;3044;43.232;27.972;2023-09-07T08:58:39;11.00;;;5.33;;
6031;SDS011;3044;43.232;27.972;2023-09-07T09:01:06;13.50;;;5.30;;
6031;SDS011;3044;43.232;27.972;2023-09-07T09:03:35;9.23;;;4.07;;
6031;SDS011;3044;43.232;27.972;2023-09-07T09:06:03;7.17;;;4.63;;
6031;SDS011;3044;43.232;27.972;2023-09-07T09:08:42;5.90;;;3.97;;
6031;SDS011;3044;43.232;27.972;2023-09-07T09:11:10;6.67;;;4.40;;
6031;SDS011;3044;43.232;27.972;2023-09-07T09:13:39;8.23;;;4.60;;
6031;SDS011;3044;43.232;27.972;2023-09-07T09:16:06;15.80;;;4.20;;
6031;SDS011;3044;43.232;27.972;2023-09-07T09:18:34;13.50;;;4.97;;
6031;SDS011;3044;43.232;27.972;2023-09-07T09:21:01;8.23;;;4.20;;
6031;SDS011;3044;43.232;27.972;2023-09-07T09:23:30;11.17;;;4.20;;
6031;SDS011;3044;43.232;27.972;2023-09-07T09:26:00;9.40;;;5.00;;
6031;SDS011;3044;43.232;27.972;2023-09-07T09:28:28;13.73;;;4.33;;
6031;SDS011;3044;43.232;27.972;2023-09-07T09:30:58;11.93;;;4.80;;
6031;SDS011;3044;43.232;27.972;2023-09-07T09:33:25;6.47;;;4.57;;
6031;SDS011;3044;43.232;27.972;2023-09-07T09:35:53;11.60;;;5.27;;
6031;SDS011;3044;43.232;27.972;2023-09-07T09:38:21;9.07;;;4.57;;
6031;SDS011;3044;43.232;27.972;2023-09-07T09:40:49;10.03;;;4.10;;
6031;SDS011;3044;43.232;27.972;2023-09-07T09:43:17;8.73;;;4.67;;
6031;SDS011;3044;43.232;27.972;2023-09-07T09:45:46;12.30;;;4.90;;
6031;SDS011;3044;43.232;27.972;2023-09-07T09:48:16;18.93;;;5.13;;
6031;SDS011;3044;43.232;27.972;2023-09-07T09:50:46;5.90;;;4.40;;
6031;SDS011;3044;43.232;27.972;2023-09-07T09:53:14;12.30;;;4.70;;
6031;SDS011;3044;43.232;27.972;2023-09-07T09:55:44;12.67;;;5.10;;
6031;SDS011;3044;43.232;27.972;2023-09-07T09:58:12;9.40;;;5.13;;
6031;SDS011;3044;43.232;27.972;2023-09-07T10:00:41;9.10;;;4.67;;
6031;SDS011;3044;43.232;27.972;2023-09-07T10:03:10;19.40;;;4.50;;
6031;SDS011;3044;43.232;27.972;2023-09-07T10:05:43;11.53;;;4.77;;
6031;SDS011;3044;43.232;27.972;2023-09-07T10:08:11;14.00;;;5.63;;
6031;SDS011;3044;43.232;27.972;2023-09-07T10:10:40;7.30;;;4.50;;
6031;SDS011;3044;43.232;27.972;2023-09-07T10:13:08;9.63;;;5.13;;
6031;SDS011;3044;43.232;27.972;2023-09-07T10:15:36;7.10;;;5.30;;
6031;SDS011;3044;43.232;27.972;2023-09-07T10:18:08;13.73;;;5.40;;
6031;SDS011;3044;43.232;27.972;2023-09-07T10:20:53;22.13;;;5.13;;
6031;SDS011;3044;43.232;27.972;2023-09-07T10:23:22;12.10;;;5.03;;
6031;SDS011;3044;43.232;27.972;2023-09-07T10:25:50;9.93;;;5.00;;
6031;SDS011;3044;43.232;27.972;2023-09-07T10:28:22;12.50;;;5.23;;
6031;SDS011;3044;43.232;27.972;2023-09-07T10:30:59;10.47;;;5.07;;
6031;SDS011;3044;43.232;27.972;2023-09-07T10:33:31;7.57;;;4.73;;
6031;SDS011;3044;43.232;27.972;2023-09-07T10:35:59;8.40;;;5.90;;
6031;SDS011;3044;43.232;27.972;2023-09-07T10:38:27;15.70;;;5.37;;
6031;SDS011;3044;43.232;27.972;2023-09-07T10:40:55;7.87;;;4.40;;
6031;SDS011;3044;43.232;27.972;2023-09-07T10:43:24;10.30;;;5.07;;
6031;SDS011;3044;43.232;27.972;2023-09-07T10:45:52;10.60;;;4.43;;
6031;SDS011;3044;43.232;27.972;2023-09-07T10:48:20;10.67;;;5.17;;
6031;SDS011;3044;43.232;27.972;2023-09-07T10:50:48;9.13;;;5.10;;
6031;SDS011;3044;43.232;27.972;2023-09-07T10:53:23;10.53;;;5.17;;
6031;SDS011;3044;43.232;27.972;2023-09-07T10:55:52;15.90;;;5.20;;
6031;SDS011;3044;43.232;27.972;2023-09-07T10:58:27;10.33;;;5.17;;
6031;SDS011;3044;43.232;27.972;2023-09-07T11:00:57;18.33;;;5.60;;
6031;SDS011;3044;43.232;27.972;2023-09-07T11:03:26;7.63;;;4.90;;
6031;SDS011;3044;43.232;27.972;2023-09-07T11:05:57;13.37;;;5.30;;
6031;SDS011;3044;43.232;27.972;2023-09-07T11:08:28;8.10;;;5.20;;
6031;SDS011;3044;43.232;27.972;2023-09-07T11:10:56;6.60;;;4.83;;
6031;SDS011;3044;43.232;27.972;2023-09-07T11:13:23;14.47;;;7.00;;
6031;SDS011;3044;43.232;27.972;2023-09-07T11:15:53;7.20;;;4.30;;
6031;SDS011;3044;43.232;27.972;2023-09-07T11:18:21;9.80;;;5.00;;
6031;SDS011;3044;43.232;27.972;2023-09-07T11:20:49;6.93;;;4.87;;
6031;SDS011;3044;43.232;27.972;2023-09-07T11:23:19;10.60;;;5.27;;
6031;SDS011;3044;43.232;27.972;2023-09-07T11:25:47;7.13;;;4.50;;
6031;SDS011;3044;43.232;27.972;2023-09-07T11:28:16;6.40;;;4.50;;
6031;SDS011;3044;43.232;27.972;2023-09-07T11:30:51;8.33;;;3.90;;
6031;SDS011;3044;43.232;27.972;2023-09-07T11:33:18;9.97;;;5.47;;
6031;SDS011;3044;43.232;27.972;2023-09-07T11:35:49;7.53;;;4.43;;
6031;SDS011;3044;43.232;27.972;2023-09-07T11:38:17;7.67;;;5.63;;
6031;SDS011;3044;43.232;27.972;2023-09-07T11:40:47;7.73;;;4.03;;
6031;SDS011;3044;43.232;27.972;2023-09-07T11:43:15;11.73;;;4.60;;
6031;SDS011;3044;43.232;27.972;2023-09-07T11:45:48;13.77;;;4.40;;
6031;SDS011;3044;43.232;27.972;2023-09-07T11:48:17;6.83;;;4.70;;
6031;SDS011;3044;43.232;27.972;2023-09-07T11:50:44;7.83;;;4.13;;
6031;SDS011;3044;43.232;27.972;2023-09-07T11:53:12;14.00;;;5.23;;
6031;SDS011;3044;43.232;27.972;2023-09-07T11:55:41;11.23;;;5.37;;
6031;SDS011;3044;43.232;27.972;2023-09-07T11:58:09;6.97;;;4.70;;
6031;SDS011;3044;43.232;27.972;2023-09-07T12:00:36;7.83;;;4.20;;
6031;SDS011;3044;43.232;27.972;2023-09-07T12:03:05;21.47;;;4.80;;
6031;SDS011;3044;43.232;27.972;2023-09-07T12:05:32;6.70;;;4.10;;
6031;SDS011;3044;43.232;27.972;2023-09-07T12:08:01;10.50;;;4.33;;
6031;SDS011;3044;43.232;27.972;2023-09-07T12:10:30;9.13;;;4.30;;
6031;SDS011;3044;43.232;27.972;2023-09-07T12:12:59;8.10;;;5.23;;
6031;SDS011;3044;43.232;27.972;2023-09-07T12:15:26;7.97;;;4.10;;
6031;SDS011;3044;43.232;27.972;2023-09-07T12:17:53;25.43;;;5.30;;
6031;SDS011;3044;43.232;27.972;2023-09-07T12:20:21;13.07;;;4.77;;
6031;SDS011;3044;43.232;27.972;2023-09-07T12:22:49;14.83;;;5.20;;
6031;SDS011;3044;43.232;27.972;2023-09-07T12:25:17;9.07;;;4.40;;
6031;SDS011;3044;43.232;27.972;2023-09-07T12:27:44;10.67;;;4.67;;
6031;SDS011;3044;43.232;27.972;2023-09-07T12:30:13;8.73;;;4.63;;
6031;SDS011;3044;43.232;27.972;2023-09-07T12:32:43;11.30;;;4.70;;
6031;SDS011;3044;43.232;27.972;2023-09-07T12:35:10;15.80;;;5.20;;
6031;SDS011;3044;43.232;27.972;2023-09-07T12:37:38;11.20;;;4.60;;
6031;SDS011;3044;43.232;27.972;2023-09-07T12:40:05;9.27;;;4.73;;
6031;SDS011;3044;43.232;27.972;2023-09-07T12:42:37;12.67;;;4.33;;
6031;SDS011;3044;43.232;27.972;2023-09-07T12:45:06;4.67;;;3.90;;
6031;SDS011;3044;43.232;27.972;2023-09-07T12:47:36;11.87;;;4.60;;
6031;SDS011;3044;43.232;27.972;2023-09-07T12:50:03;7.30;;;3.93;;
6031;SDS011;3044;43.232;27.972;2023-09-07T12:52:32;5.90;;;4.20;;
6031;SDS011;3044;43.232;27.972;2023-09-07T12:54:59;4.37;;;3.97;;
6031;SDS011;3044;43.232;27.972;2023-09-07T12:57:26;7.53;;;4.40;;
6031;SDS011;3044;43.232;27.972;2023-09-07T12:59:54;6.67;;;4.20;;
6031;SDS011;3044;43.232;27.972;2023-09-07T13:02:21;13.33;;;4.17;;
6031;SDS011;3044;43.232;27.972;2023-09-07T13:04:50;10.53;;;4.20;;
6031;SDS011;3044;43.232;27.972;2023-09-07T13:07:17;5.93;;;4.10;;
6031;SDS011;3044;43.232;27.972;2023-09-07T13:09:44;9.67;;;3.50;;
6031;SDS011;3044;43.232;27.972;2023-09-07T13:12:11;5.13;;;4.67;;
6031;SDS011;3044;43.232;27.972;2023-09-07T13:14:38;9.03;;;4.03;;
6031;SDS011;3044;43.232;27.972;2023-09-07T13:17:05;6.30;;;3.83;;
6031;SDS011;3044;43.232;27.972;2023-09-07T13:19:36;6.53;;;4.23;;
6031;SDS011;3044;43.232;27.972;2023-09-07T13:22:04;8.10;;;4.30;;
6031;SDS011;3044;43.232;27.972;2023-09-07T13:24:32;6.20;;;3.83;;
6031;SDS011;3044;43.232;27.972;2023-09-07T13:26:59;15.00;;;5.10;;
6031;SDS011;3044;43.232;27.972;2023-09-07T13:29:28;8.17;;;4.00;;
6031;SDS011;3044;43.232;27.972;2023-09-07T13:31:56;7.87;;;4.07;;
6031;SDS011;3044;43.232;27.972;2023-09-07T13:34:24;10.00;;;3.50;;
6031;SDS011;3044;43.232;27.972;2023-09-07T13:36:52;10.13;;;4.40;;
6031;SDS011;3044;43.232;27.972;2023-09-07T13:39:21;7.80;;;3.27;;
6031;SDS011;3044;43.232;27.972;2023-09-07T13:41:48;26.07;;;3.70;;
6031;SDS011;3044;43.232;27.972;2023-09-07T13:44:15;5.13;;;4.20;;
6031;SDS011;3044;43.232;27.972;2023-09-07T13:46:43;8.63;;;4.13;;
6031;SDS011;3044;43.232;27.972;2023-09-07T13:49:11;9.50;;;4.13;;
6031;SDS011;3044;43.232;27.972;2023-09-07T13:51:39;8.27;;;3.73;;
6031;SDS011;3044;43.232;27.972;2023-09-07T13:54:07;6.50;;;4.50;;
6031;SDS011;3044;43.232;27.972;2023-09-07T13:56:36;8.83;;;3.97;;
6031;SDS011;3044;43.232;27.972;2023-09-07T13:59:04;5.70;;;3.50;;
6031;SDS011;3044;43.232;27.972;2023-09-07T14:01:31;7.97;;;4.20;;
6031;SDS011;3044;43.232;27.972;2023-09-07T14:03:58;12.23;;;4.70;;
6031;SDS011;3044;43.232;27.972;2023-09-07T14:06:25;7.00;;;4.40;;
6031;SDS011;3044;43.232;27.972;2023-09-07T14:08:52;6.17;;;4.00;;
6031;SDS011;3044;43.232;27.972;2023-09-07T14:11:19;18.03;;;4.70;;
6031;SDS011;3044;43.232;27.972;2023-09-07T14:13:49;7.97;;;4.30;;
6031;SDS011;3044;43.232;27.972;2023-09-07T14:16:17;18.23;;;4.70;;
6031;SDS011;3044;43.232;27.972;2023-09-07T14:18:44;4.60;;;4.00;;
6031;SDS011;3044;43.232;27.972;2023-09-07T14:21:13;6.47;;;4.23;;
6031;SDS011;3044;43.232;27.972;2023-09-07T14:23:41;15.60;;;4.60;;
6031;SDS011;3044;43.232;27.972;2023-09-07T14:26:09;5.43;;;4.40;;
6031;SDS011;3044;43.232;27.972;2023-09-07T14:28:36;8.20;;;4.47;;
6031;SDS011;3044;43.232;27.972;2023-09-07T14:31:06;8.23;;;4.20;;
6031;SDS011;3044;43.232;27.972;2023-09-07T14:33:33;8.87;;;3.80;;
6031;SDS011;3044;43.232;27.972;2023-09-07T14:36:04;5.27;;;3.90;;
6031;SDS011;3044;43.232;27.972;2023-09-07T14:38:31;14.20;;;4.70;;
6031;SDS011;3044;43.232;27.972;2023-09-07T14:41:00;4.97;;;3.70;;
6031;SDS011;3044;43.232;27.972;2023-09-07T14:43:28;6.37;;;3.53;;
6031;SDS011;3044;43.232;27.972;2023-09-07T14:45:55;11.23;;;4.23;;
6031;SDS011;3044;43.232;27.972;2023-09-07T14:48:24;11.83;;;3.87;;
6031;SDS011;3044;43.232;27.972;2023-09-07T14:50:51;6.80;;;4.23;;
6031;SDS011;3044;43.232;27.972;2023-09-07T14:53:18;6.10;;;3.67;;
6031;SDS011;3044;43.232;27.972;2023-09-07T14:55:45;10.50;;;3.57;;
6031;SDS011;3044;43.232;27.972;2023-09-07T14:58:13;8.00;;;4.60;;
6031;SDS011;3044;43.232;27.972;2023-09-07T15:00:40;8.30;;;4.07;;